createdAt,value
2023-04-10T00:02:09.745Z,79.43
2023-04-10T00:04:39.607Z,82.40
2023-04-10T00:07:09.792Z,78.32
2023-04-10T00:09:39.687Z,74.53
2023-04-10T00:12:09.848Z,74.22
2023-04-10T00:14:40.156Z,73.22
2023-04-10T00:17:10.564Z,72.00
2023-04-10T00:19:40.348Z,72.00
2023-04-10T00:22:10.369Z,66.65
2023-04-10T00:24:40.078Z,73.03
2023-04-10T00:27:10.199Z,77.05
2023-04-10T00:29:40.014Z,68.93
2023-04-10T00:32:10.370Z,69.57
2023-04-10T00:34:40.147Z,71.55
2023-04-10T00:37:10.308Z,67.22
2023-04-10T00:39:40.096Z,63.22
2023-04-10T00:42:11.493Z,65.70
2023-04-10T00:44:42.920Z,62.80
2023-04-10T00:47:14.481Z,62.95
2023-04-10T00:49:47.919Z,58.17
2023-04-10T00:52:18.134Z,63.22
2023-04-10T00:54:48.785Z,60.17
2023-04-10T00:57:19.297Z,60.63
2023-04-10T00:59:50.442Z,58.45
2023-04-10T01:02:21.792Z,59.90
2023-04-10T01:04:53.752Z,62.50
2023-04-10T01:08:03.540Z,60.88
2023-04-10T01:10:49.357Z,58.90
2023-04-10T01:13:36.006Z,59.55
2023-04-10T01:16:22.422Z,56.55
2023-04-10T01:19:27.827Z,57.75
2023-04-10T01:21:58.635Z,58.40
2023-04-10T01:24:58.230Z,59.13
2023-04-10T01:27:46.846Z,57.33
2023-04-10T01:30:21.921Z,56.38
2023-04-10T01:32:54.062Z,62.15
2023-04-10T01:35:24.829Z,60.28
2023-04-10T01:37:57.013Z,60.08
2023-04-10T01:40:29.120Z,61.78
2023-04-10T01:43:02.474Z,58.67
2023-04-10T01:45:46.534Z,59.40
2023-04-10T01:48:19.310Z,61.35
2023-04-10T01:50:49.873Z,59.22
2023-04-10T01:53:20.395Z,60.03
2023-04-10T01:55:50.917Z,58.38
2023-04-10T01:58:22.233Z,58.45
2023-04-10T02:00:55.422Z,58.72
2023-04-10T02:03:26.000Z,62.03
2023-04-10T02:06:35.054Z,57.90
2023-04-10T02:09:32.954Z,56.70
2023-04-10T02:12:12.504Z,56.47
2023-04-10T02:14:46.923Z,58.70
2023-04-10T02:17:21.799Z,55.58
2023-04-10T02:19:57.484Z,53.50
2023-04-10T02:22:28.575Z,51.13
2023-04-10T02:25:00.793Z,52.30
2023-04-10T02:27:36.284Z,50.03
2023-04-10T02:30:07.443Z,52.17
2023-04-10T02:32:39.210Z,48.83
2023-04-10T02:35:11.036Z,52.35
2023-04-10T02:37:41.260Z,50.97
2023-04-10T02:40:11.583Z,49.50
2023-04-10T02:43:01.133Z,49.70
2023-04-10T02:45:31.094Z,49.63
2023-04-10T02:48:01.547Z,49.72
2023-04-10T02:50:33.804Z,50.50
2023-04-10T02:53:03.853Z,49.45
2023-04-10T02:55:33.742Z,49.65
2023-04-10T02:58:03.887Z,48.75
2023-04-10T03:00:36.091Z,48.67
2023-04-10T03:03:18.055Z,46.92
2023-04-10T03:05:53.208Z,49.05
2023-04-10T03:08:29.770Z,51.63
2023-04-10T03:10:59.798Z,56.03
2023-04-10T03:13:29.589Z,58.22
2023-04-10T03:15:59.938Z,45.03
2023-04-10T03:18:30.048Z,46.53
2023-04-10T03:21:00.570Z,44.83
2023-04-10T03:23:30.408Z,48.33
2023-04-10T03:26:00.373Z,46.38
2023-04-10T03:28:34.593Z,44.75
2023-04-10T03:31:08.252Z,45.50
2023-04-10T03:33:38.794Z,46.25
2023-04-10T03:36:09.820Z,45.80
2023-04-10T03:38:39.975Z,45.75
2023-04-10T03:41:11.517Z,44.40
2023-04-10T03:43:42.970Z,42.90
2023-04-10T03:46:12.993Z,41.75
2023-04-10T03:48:45.556Z,42.00
2023-04-10T03:51:15.753Z,42.20
2023-04-10T03:53:48.684Z,41.08
2023-04-10T03:56:19.289Z,42.13
2023-04-10T03:58:50.013Z,41.72
2023-04-10T04:01:20.251Z,40.67
2023-04-10T04:04:02.374Z,41.35
2023-04-10T04:06:52.853Z,40.08
2023-04-10T04:09:36.400Z,41.58
2023-04-10T04:12:26.198Z,39.50
2023-04-10T04:15:10.954Z,53.55
2023-04-10T04:17:48.465Z,58.03
2023-04-10T04:20:37.912Z,55.50
2023-04-10T04:23:27.622Z,36.78
2023-04-10T04:26:17.260Z,36.70
2023-04-10T04:29:06.792Z,37.72
2023-04-10T04:31:53.889Z,36.35
2023-04-10T04:34:43.713Z,36.65
2023-04-10T04:37:24.273Z,36.25
2023-04-10T04:40:14.234Z,38.20
2023-04-10T04:43:03.763Z,35.05
2023-04-10T04:45:53.553Z,35.42
2023-04-10T04:48:43.643Z,32.75
2023-04-10T04:51:33.421Z,36.95
2023-04-10T04:54:22.978Z,34.42
2023-04-10T04:57:12.736Z,37.13
2023-04-10T05:00:02.229Z,36.80
2023-04-10T05:02:52.093Z,34.78
2023-04-10T05:05:41.839Z,34.30
2023-04-10T05:08:31.352Z,33.92
2023-04-10T05:11:20.991Z,36.30
2023-04-10T05:14:10.733Z,34.85
2023-04-10T05:17:01.582Z,34.95
2023-04-10T05:19:53.159Z,35.30
2023-04-10T05:22:40.904Z,33.33
2023-04-10T05:25:30.623Z,33.38
2023-04-10T05:28:09.421Z,35.17
2023-04-10T05:30:59.185Z,35.42
2023-04-10T05:33:35.323Z,35.70
2023-04-10T05:36:25.062Z,37.38
2023-04-10T05:39:01.355Z,35.30
2023-04-10T05:41:53.066Z,36.95
2023-04-10T05:44:33.514Z,35.63
2023-04-10T05:47:23.255Z,34.70
2023-04-10T05:50:00.232Z,34.22
2023-04-10T05:52:49.984Z,34.70
2023-04-10T05:55:39.508Z,34.47
2023-04-10T05:58:25.373Z,34.95
2023-04-10T06:01:15.042Z,35.03
2023-04-10T06:03:54.330Z,34.25
2023-04-10T06:06:27.419Z,34.38
2023-04-10T06:08:58.604Z,36.22
2023-04-10T06:11:28.835Z,35.45
2023-04-10T06:14:00.380Z,35.30
2023-04-10T06:16:40.640Z,34.53
2023-04-10T06:19:11.189Z,34.92
2023-04-10T06:21:41.021Z,35.00
2023-04-10T06:24:12.887Z,34.83
2023-04-10T06:26:43.096Z,34.83
2023-04-10T06:29:13.064Z,34.35
2023-04-10T06:31:43.270Z,34.10
2023-04-10T06:34:13.102Z,34.17
2023-04-10T06:36:53.425Z,34.65
2023-04-10T06:39:23.731Z,35.55
2023-04-10T06:41:53.509Z,35.65
2023-04-10T06:44:43.062Z,35.97
2023-04-10T06:47:13.413Z,35.40
2023-04-10T06:49:43.105Z,35.95
2023-04-10T06:52:13.133Z,34.15
2023-04-10T06:54:42.873Z,36.40
2023-04-10T06:57:13.011Z,35.47
2023-04-10T06:59:42.965Z,36.22
2023-04-10T07:02:13.030Z,34.17
2023-04-10T07:04:43.719Z,36.03
2023-04-10T07:07:17.388Z,34.97
2023-04-10T07:09:47.652Z,35.88
2023-04-10T07:12:18.003Z,36.95
2023-04-10T07:14:48.516Z,38.08
2023-04-10T07:17:18.478Z,37.08
2023-04-10T07:19:48.238Z,38.58
2023-04-10T07:22:18.574Z,38.90
2023-04-10T07:24:54.035Z,38.15
2023-04-10T07:27:24.856Z,39.53
2023-04-10T07:29:58.615Z,37.20
2023-04-10T07:32:28.937Z,37.65
2023-04-10T07:34:58.828Z,38.42
2023-04-10T07:37:28.884Z,39.63
2023-04-10T07:39:58.837Z,41.53
2023-04-10T07:42:29.042Z,36.47
2023-04-10T07:44:59.198Z,36.97
2023-04-10T07:47:29.820Z,35.13
2023-04-10T07:49:59.671Z,34.47
2023-04-10T07:52:29.858Z,34.95
2023-04-10T07:54:59.658Z,34.83
2023-04-10T07:57:29.658Z,33.75
2023-04-10T07:59:59.677Z,35.60
2023-04-10T08:02:29.909Z,35.30
2023-04-10T08:05:00.052Z,35.20
2023-04-10T08:07:30.256Z,34.67
2023-04-10T08:10:00.083Z,36.10
2023-04-10T08:12:30.040Z,34.08
2023-04-10T08:15:00.413Z,34.78
2023-04-10T08:17:30.670Z,34.33
2023-04-10T08:20:00.514Z,35.92
2023-04-10T08:22:32.508Z,35.28
2023-04-10T08:25:02.657Z,33.90
2023-04-10T08:27:32.503Z,35.67
2023-04-10T08:30:02.545Z,35.85
2023-04-10T08:32:32.352Z,34.10
2023-04-10T08:35:02.314Z,34.95
2023-04-10T08:37:32.119Z,34.63
2023-04-10T08:40:02.182Z,33.08
2023-04-10T08:42:34.560Z,33.20
2023-04-10T08:45:06.399Z,33.28
2023-04-10T08:47:39.966Z,33.17
2023-04-10T08:50:15.019Z,33.25
2023-04-10T08:52:47.330Z,35.47
2023-04-10T08:55:17.842Z,35.00
2023-04-10T08:57:54.291Z,34.47
2023-04-10T09:00:33.067Z,34.70
2023-04-10T09:03:06.426Z,34.15
2023-04-10T09:05:38.676Z,34.88
2023-04-10T09:08:11.197Z,34.13
2023-04-10T09:10:41.354Z,34.60
2023-04-10T09:13:11.172Z,35.83
2023-04-10T09:16:01.920Z,35.17
2023-04-10T09:18:52.830Z,35.97
2023-04-10T09:21:23.836Z,36.45
2023-04-10T09:24:02.810Z,36.05
2023-04-10T09:26:35.130Z,36.88
2023-04-10T09:29:09.553Z,38.03
2023-04-10T09:31:40.955Z,38.30
2023-04-10T09:34:30.713Z,36.58
2023-04-10T09:37:03.173Z,37.75
2023-04-10T09:39:37.562Z,36.00
2023-04-10T09:42:07.702Z,37.70
2023-04-10T09:44:39.660Z,36.08
2023-04-10T09:47:23.317Z,36.38
2023-04-10T09:49:58.383Z,36.30
2023-04-10T09:52:30.618Z,34.83
2023-04-10T09:55:05.853Z,37.10
2023-04-10T09:57:37.225Z,37.45
2023-04-10T10:00:09.796Z,40.38
2023-04-10T10:02:41.475Z,42.03
2023-04-10T10:05:12.337Z,40.33
2023-04-10T10:07:42.592Z,41.75
2023-04-10T10:10:14.755Z,40.65
2023-04-10T10:12:56.983Z,39.83
2023-04-10T10:15:49.683Z,39.88
2023-04-10T10:18:28.161Z,40.83
2023-04-10T10:20:58.752Z,39.63
2023-04-10T10:23:30.184Z,40.17
2023-04-10T10:26:03.280Z,40.90
2023-04-10T10:28:35.867Z,39.95
2023-04-10T10:31:06.340Z,51.97
2023-04-10T10:33:39.920Z,42.03
2023-04-10T10:36:12.956Z,39.13
2023-04-10T10:38:48.445Z,43.75
2023-04-10T10:41:33.116Z,45.60
2023-04-10T10:44:23.709Z,49.67
2023-04-10T10:47:11.824Z,44.30
2023-04-10T10:50:02.462Z,41.65
2023-04-10T10:52:44.544Z,42.28
2023-04-10T10:55:38.489Z,43.15
2023-04-10T10:58:11.233Z,41.78
2023-04-10T11:01:10.013Z,50.75
2023-04-10T11:03:41.466Z,52.15
2023-04-10T11:06:14.365Z,42.95
2023-04-10T11:08:54.208Z,41.85
2023-04-10T11:11:30.516Z,42.63
2023-04-10T11:14:19.822Z,42.85
2023-04-10T11:16:50.076Z,43.45
2023-04-10T11:19:23.241Z,42.65
2023-04-10T11:22:16.960Z,43.53
2023-04-10T11:24:59.277Z,44.40
2023-04-10T11:27:54.373Z,44.90
2023-04-10T11:30:36.154Z,51.20
2023-04-10T11:33:07.539Z,50.95
2023-04-10T11:35:37.699Z,51.78
2023-04-10T11:38:16.227Z,54.92
2023-04-10T11:40:57.003Z,62.42
2023-04-10T11:43:27.146Z,62.72
2023-04-10T11:46:08.958Z,67.38
2023-04-10T11:48:39.541Z,76.75
2023-04-10T11:51:11.329Z,63.95
2023-04-10T11:53:42.649Z,63.72
2023-04-10T11:56:19.960Z,66.97
2023-04-10T11:58:57.147Z,59.97
2023-04-10T12:01:27.699Z,54.78
2023-04-10T12:03:58.062Z,51.15
2023-04-10T12:06:29.146Z,58.78
2023-04-10T12:08:59.032Z,74.82
2023-04-10T12:11:30.377Z,81.53
2023-04-10T12:14:00.520Z,72.47
2023-04-10T12:16:30.584Z,71.90
2023-04-10T12:19:00.836Z,63.97
2023-04-10T12:21:30.684Z,66.43
2023-04-10T12:24:00.626Z,66.90
2023-04-10T12:26:30.484Z,80.30
2023-04-10T12:29:00.923Z,89.55
2023-04-10T12:31:36.057Z,89.70
2023-04-10T12:34:09.791Z,74.22
2023-04-10T12:36:40.747Z,72.65
2023-04-10T12:39:25.276Z,69.68
2023-04-10T12:41:55.617Z,64.75
2023-04-10T12:44:25.380Z,65.40
2023-04-10T12:47:03.408Z,67.93
2023-04-10T12:49:33.469Z,71.53
2023-04-10T12:52:03.364Z,75.30
2023-04-10T12:54:38.488Z,89.55
2023-04-10T12:57:08.661Z,127.15
2023-04-10T12:59:38.968Z,129.35
2023-04-10T13:02:09.214Z,114.18
2023-04-10T13:04:39.205Z,104.40
2023-04-10T13:07:09.315Z,99.47
2023-04-10T13:09:39.167Z,90.70
2023-04-10T13:12:09.643Z,93.03
2023-04-10T13:14:39.512Z,90.63
2023-04-10T13:17:09.465Z,98.25
2023-04-10T13:19:39.190Z,109.30
2023-04-10T13:22:09.371Z,110.53
2023-04-10T13:24:39.780Z,108.88
2023-04-10T13:27:11.133Z,104.88
2023-04-10T13:29:45.363Z,100.68
2023-04-10T13:32:15.329Z,98.28
2023-04-10T13:34:45.053Z,95.50
2023-04-10T13:37:15.243Z,95.30
2023-04-10T13:39:45.113Z,92.53
2023-04-10T13:42:15.819Z,90.78
2023-04-10T13:44:45.680Z,88.72
2023-04-10T13:47:16.034Z,85.80
2023-04-10T13:49:49.253Z,87.47
2023-04-10T13:52:20.344Z,87.65
2023-04-10T13:54:50.169Z,93.38
2023-04-10T13:57:20.407Z,89.43
2023-04-10T13:59:50.144Z,91.70
2023-04-10T14:02:20.317Z,92.03
2023-04-10T14:04:51.283Z,95.97
2023-04-10T14:07:21.687Z,91.53
2023-04-10T14:09:51.792Z,91.47
2023-04-10T14:12:24.569Z,86.57
2023-04-10T14:14:54.849Z,79.03
2023-04-10T14:17:24.991Z,83.35
2023-04-10T14:19:55.574Z,81.75
2023-04-10T14:22:25.580Z,80.53
2023-04-10T14:25:05.290Z,82.03
2023-04-10T14:27:42.314Z,81.97
2023-04-10T14:30:12.537Z,87.10
2023-04-10T14:32:42.821Z,89.57
2023-04-10T14:35:13.357Z,226.73
2023-04-10T14:37:43.437Z,101.53
2023-04-10T14:40:13.495Z,86.03
2023-04-10T14:42:43.455Z,96.22
2023-04-10T14:45:13.369Z,98.72
2023-04-10T14:47:43.386Z,97.45
2023-04-10T14:50:13.522Z,97.72
2023-04-10T14:52:43.500Z,90.63
2023-04-10T14:55:13.449Z,87.38
2023-04-10T14:57:43.373Z,82.63
2023-04-10T15:00:13.689Z,81.85
2023-04-10T15:02:43.951Z,83.05
2023-04-10T15:05:14.028Z,76.95
2023-04-10T15:07:44.116Z,73.82
2023-04-10T15:10:13.951Z,71.72
2023-04-10T15:12:44.734Z,70.50
2023-04-10T15:15:14.934Z,69.25
2023-04-10T15:17:44.724Z,74.55
2023-04-10T15:20:15.588Z,73.32
2023-04-10T15:22:46.574Z,74.13
2023-04-10T15:25:16.812Z,70.63
2023-04-10T15:27:46.696Z,72.40
2023-04-10T15:30:18.764Z,83.72
2023-04-10T15:32:48.773Z,101.55
2023-04-10T15:35:18.605Z,107.75
2023-04-10T15:37:49.004Z,106.10
2023-04-10T15:40:18.837Z,101.32
2023-04-10T15:42:49.022Z,86.28
2023-04-10T15:45:18.853Z,113.05
2023-04-10T15:47:49.554Z,113.35
2023-04-10T15:50:19.737Z,86.45
2023-04-10T15:52:49.527Z,80.85
2023-04-10T15:55:19.616Z,77.45
2023-04-10T15:57:49.445Z,78.57
2023-04-10T16:00:19.825Z,81.07
2023-04-10T16:02:49.813Z,84.05
2023-04-10T16:05:20.142Z,89.18
2023-04-10T16:07:49.894Z,97.05
2023-04-10T16:10:20.171Z,101.72
2023-04-10T16:12:50.042Z,112.30
2023-04-10T16:15:20.257Z,111.20
2023-04-10T16:17:50.101Z,99.38
2023-04-10T16:20:20.298Z,92.78
2023-04-10T16:22:50.252Z,85.97
2023-04-10T16:25:21.712Z,76.43
2023-04-10T16:27:53.311Z,74.53
2023-04-10T16:30:23.898Z,69.57
2023-04-10T16:32:54.210Z,67.35
2023-04-10T16:35:24.540Z,68.35
2023-04-10T16:37:54.259Z,70.30
2023-04-10T16:40:24.497Z,66.53
2023-04-10T16:42:54.288Z,65.65
2023-04-10T16:45:24.219Z,67.00
2023-04-10T16:47:53.956Z,67.55
2023-04-10T16:50:23.879Z,64.65
2023-04-10T16:52:53.702Z,69.40
2023-04-10T16:55:23.680Z,72.57
2023-04-10T16:57:53.412Z,76.18
2023-04-10T17:00:23.456Z,74.25
2023-04-10T17:02:53.204Z,69.97
2023-04-10T17:05:23.182Z,70.43
2023-04-10T17:07:52.937Z,69.65
2023-04-10T17:10:22.866Z,71.40
2023-04-10T17:12:52.731Z,67.80
2023-04-10T17:15:22.605Z,69.63
2023-04-10T17:17:52.756Z,70.97
2023-04-10T17:20:22.894Z,93.72
2023-04-10T17:22:52.804Z,77.05
2023-04-10T17:25:22.781Z,70.82
2023-04-10T17:27:52.444Z,68.43
2023-04-10T17:30:22.325Z,71.20
2023-04-10T17:32:52.386Z,68.57
2023-04-10T17:35:22.484Z,72.45
2023-04-10T17:37:52.272Z,84.80
2023-04-10T17:40:22.365Z,76.93
2023-04-10T17:42:52.270Z,78.03
2023-04-10T17:45:22.244Z,79.65
2023-04-10T17:47:52.218Z,77.95
2023-04-10T17:50:22.193Z,74.18
2023-04-10T17:52:51.963Z,74.53
2023-04-10T17:55:21.999Z,74.00
2023-04-10T17:57:51.782Z,74.20
2023-04-10T18:00:23.535Z,73.88
2023-04-10T18:02:59.294Z,74.35
2023-04-10T18:05:32.308Z,74.97
2023-04-10T18:08:02.225Z,71.88
2023-04-10T18:10:32.467Z,81.05
2023-04-10T18:13:02.402Z,75.68
2023-04-10T18:15:32.205Z,80.28
2023-04-10T18:18:02.320Z,77.20
2023-04-10T18:20:32.124Z,78.95
2023-04-10T18:23:04.051Z,77.00
2023-04-10T18:25:34.536Z,78.75
2023-04-10T18:28:14.241Z,80.25
2023-04-10T18:30:45.650Z,80.82
2023-04-10T18:33:21.829Z,79.07
2023-04-10T18:35:54.009Z,78.18
2023-04-10T18:38:24.228Z,82.93
2023-04-10T18:40:58.380Z,84.30
2023-04-10T18:43:32.003Z,85.95
2023-04-10T18:46:02.383Z,82.40
2023-04-10T18:48:32.634Z,79.25
2023-04-10T18:51:02.373Z,79.32
2023-04-10T18:53:32.310Z,79.13
2023-04-10T18:56:02.029Z,76.18
2023-04-10T18:58:33.785Z,82.47
2023-04-10T19:01:03.741Z,80.18
2023-04-10T19:03:33.837Z,76.10
2023-04-10T19:06:04.076Z,76.53
2023-04-10T19:08:33.859Z,78.05
2023-04-10T19:11:07.951Z,76.40
2023-04-10T19:13:38.248Z,79.20
2023-04-10T19:16:10.345Z,77.40
2023-04-10T19:18:40.494Z,77.47
2023-04-10T19:21:10.306Z,77.88
2023-04-10T19:23:40.619Z,75.57
2023-04-10T19:26:11.315Z,74.60
2023-04-10T19:28:41.742Z,80.30
2023-04-10T19:31:11.928Z,102.38
2023-04-10T19:33:42.779Z,107.78
2023-04-10T19:36:12.833Z,110.32
2023-04-10T19:38:45.443Z,104.25
2023-04-10T19:41:17.031Z,101.43
2023-04-10T19:43:47.150Z,99.07
2023-04-10T19:46:20.711Z,97.57
2023-04-10T19:48:51.374Z,99.25
2023-04-10T19:51:21.426Z,93.38
2023-04-10T19:53:51.204Z,91.15
2023-04-10T19:56:22.106Z,90.82
2023-04-10T19:58:52.027Z,88.47
2023-04-10T20:01:22.505Z,89.13
2023-04-10T20:03:52.639Z,86.43
2023-04-10T20:06:23.201Z,88.25
2023-04-10T20:08:53.316Z,83.55
2023-04-10T20:11:23.678Z,85.15
2023-04-10T20:13:54.465Z,85.47
2023-04-10T20:16:26.589Z,83.95
2023-04-10T20:18:57.691Z,85.47
2023-04-10T20:21:29.114Z,79.95
2023-04-10T20:23:59.270Z,82.18
2023-04-10T20:26:29.049Z,82.32
2023-04-10T20:28:59.584Z,77.70
2023-04-10T20:31:29.464Z,80.22
2023-04-10T20:34:00.575Z,76.40
2023-04-10T20:36:30.841Z,74.88
2023-04-10T20:39:00.618Z,76.03
2023-04-10T20:41:30.743Z,68.60
2023-04-10T20:44:01.151Z,71.20
2023-04-10T20:46:32.335Z,82.68
2023-04-10T20:49:02.500Z,88.60
2023-04-10T20:51:33.004Z,87.00
2023-04-10T20:54:03.093Z,82.15
2023-04-10T20:56:40.582Z,81.38
2023-04-10T20:59:13.618Z,78.25
2023-04-10T21:01:43.457Z,82.95
2023-04-10T21:04:13.505Z,78.15
2023-04-10T21:06:43.257Z,74.72
2023-04-10T21:09:13.417Z,74.15
2023-04-10T21:11:43.508Z,69.82
2023-04-10T21:14:15.311Z,67.90
2023-04-10T21:16:47.334Z,68.43
2023-04-10T21:19:17.341Z,69.45
2023-04-10T21:21:46.981Z,71.88
2023-04-10T21:24:17.264Z,77.18
2023-04-10T21:26:47.233Z,76.13
2023-04-10T21:29:17.301Z,65.93
2023-04-10T21:31:47.900Z,67.20
2023-04-10T21:34:19.446Z,80.88
2023-04-10T21:36:49.181Z,80.28
2023-04-10T21:39:19.155Z,85.47
2023-04-10T21:41:48.895Z,81.78
2023-04-10T21:44:19.124Z,84.30
2023-04-10T21:46:48.914Z,82.10
2023-04-10T21:49:18.773Z,78.88
2023-04-10T21:51:48.559Z,82.07
2023-04-10T21:54:18.750Z,76.45
2023-04-10T21:56:48.451Z,72.72
2023-04-10T21:59:18.406Z,73.40
2023-04-10T22:01:48.310Z,75.53
2023-04-10T22:04:18.823Z,71.38
2023-04-10T22:06:48.627Z,71.65
2023-04-10T22:09:19.218Z,64.78
2023-04-10T22:11:48.895Z,64.70
2023-04-10T22:14:21.280Z,61.13
2023-04-10T22:16:51.427Z,62.33
2023-04-10T22:19:21.299Z,59.75
2023-04-10T22:21:51.460Z,58.28
2023-04-10T22:24:21.459Z,59.60
2023-04-10T22:26:51.528Z,55.53
2023-04-10T22:29:21.338Z,56.88
2023-04-10T22:31:51.323Z,54.22
2023-04-10T22:34:21.096Z,52.75
2023-04-10T22:36:52.817Z,51.83
2023-04-10T22:39:22.812Z,50.20
2023-04-10T22:41:52.568Z,49.88
2023-04-10T22:44:22.711Z,49.42
2023-04-10T22:46:52.487Z,49.13
2023-04-10T22:49:22.553Z,48.33
2023-04-10T22:51:52.393Z,48.35
2023-04-10T22:54:22.364Z,49.60
2023-04-10T22:56:52.779Z,47.83
2023-04-10T22:59:22.699Z,49.15
2023-04-10T23:01:52.941Z,48.80
2023-04-10T23:04:23.296Z,49.38
2023-04-10T23:06:53.116Z,47.88
2023-04-10T23:09:23.134Z,47.95
2023-04-10T23:11:52.924Z,45.67
2023-04-10T23:14:23.473Z,47.72
2023-04-10T23:16:53.428Z,46.20
2023-04-10T23:19:23.176Z,46.38
2023-04-10T23:21:55.017Z,48.67
2023-04-10T23:24:25.143Z,47.53
2023-04-10T23:26:54.827Z,46.15
2023-04-10T23:29:24.716Z,46.95
2023-04-10T23:31:54.446Z,47.97
2023-04-10T23:34:24.491Z,47.55
2023-04-10T23:36:54.651Z,47.13
2023-04-10T23:39:24.657Z,51.42
2023-04-10T23:41:54.520Z,47.05
2023-04-10T23:44:24.754Z,48.92
2023-04-10T23:46:54.712Z,48.72
2023-04-10T23:49:24.641Z,47.65
2023-04-10T23:51:54.405Z,49.05
2023-04-10T23:54:24.271Z,47.45
2023-04-10T23:56:54.030Z,47.25
2023-04-10T23:59:24.005Z,48.17
